ADDS METAR Data INFO
IDs: Format: Raw Decoded Include TAF

Data at: 2239 UTC 11 Dec 2017

KFAT 112153Z 00000KT 5SM HZ BKN180 16/03 A3030 RMK AO2 SLP260 MTNS OBSCD HZ DSNT N-E-S T01610033
KFAT 112053Z 00000KT 5SM HZ BKN200 14/03 A3031 RMK AO2 SLP264 MTNS OBSCD HZ DSNT N-E-S T01440033 58016
KFAT 111953Z 00000KT 5SM HZ BKN200 13/03 A3033 RMK AO2 SLP271 MTNS OBSCD HZ DSNT N-E-S T01330033
KFAT 111853Z 14004KT 5SM HZ BKN200 11/03 A3035 RMK AO2 SLP278 MTNS OBSCD HZ DSNT N-E-S T01110028
KFAT 111753Z 14004KT 4SM HZ BKN200 10/03 A3036 RMK AO2 SLP280 MTNS OBSCD HZ DSNT N-E-S T01000028 10100 20000 51010
KFAT 111653Z 00000KT 4SM HZ SCT200 06/02 A3035 RMK AO2 SLP278 T00610022
KFAT 111553Z 00000KT 3SM BR SCT200 02/01 A3034 RMK AO2 TWR VIS 6 SLP275 T00220006
KFAT 111453Z 00000KT 3SM BR FEW100 SCT200 01/00 A3033 RMK AO2 SLP271 T00060000 53014
KFAT 111353Z 00000KT 4SM BR FEW200 03/01 A3030 RMK AO2 SLP262 T00330011
KFAT 111253Z 00000KT 4SM BR FEW200 03/01 A3029 RMK AO2 SLP257 T00330011
KFAT 111153Z 03003KT 6SM HZ FEW200 03/01 A3029 RMK AO2 SLP256 T00330006 10061 20033 58001
KFAT 111053Z 00000KT 5SM HZ SCT200 04/01 A3029 RMK AO2 SLP257 T00390011
KFAT 110953Z 00000KT 4SM HZ SCT200 04/01 A3029 RMK AO2 SLP258 T00390011
KFAT 110853Z 00000KT 5SM HZ FEW200 04/01 A3029 RMK AO2 SLP257 T00440011 50004
KFAT 110753Z 09003KT 5SM HZ FEW200 05/01 A3030 RMK AO2 SLP261 T00500011 401780011
KFAT 110653Z 10003KT 4SM HZ FEW200 05/01 A3030 RMK AO2 SLP259 T00500011
KFAT 110553Z 06003KT 4SM HZ SCT200 06/02 A3028 RMK AO2 SLP252 T00610022 10167 20061 53013
KFAT 110453Z 08003KT 4SM HZ SCT200 07/02 A3026 RMK AO2 SLP247 T00720022
KFAT 110353Z 00000KT 5SM HZ CLR 08/03 A3025 RMK AO2 SLP243 T00830028
KFAT 110253Z 00000KT 5SM HZ FEW200 10/03 A3024 RMK AO2 SLP241 T01000028 55000
KFAT 110153Z 29003KT 6SM HZ SCT200 12/03 A3024 RMK AO2 SLP240 T01220028
KFAT 110053Z 33003KT 6SM HZ SCT200 BKN250 16/02 A3024 RMK AO2 SLP239 T01560022
KFAT 102353Z 00000KT 5SM HZ SCT200 BKN250 17/01 A3024 RMK AO2 SLP240 T01670011 10178 20094 55009
KFAT 102253Z 00000KT 4SM HZ SCT200 BKN250 17/01 A3024 RMK AO2 SLP239 T01720011
KFAT 102153Z 29003KT 4SM HZ FEW200 17/02 A3025 RMK AO2 SLP241 T01720022
KFAT 102053Z 32003KT 4SM HZ FEW200 FEW250 16/02 A3027 RMK AO2 SLP249 T01560022 58026
KFAT 101953Z 32003KT 4SM HZ FEW200 FEW250 14/02 A3030 RMK AO2 SLP259 VIS E 2 1/2 T01390022
KFAT 101853Z 00000KT 3SM HZ FEW150 FEW200 SCT250 12/02 A3032 RMK AO2 TWR VIS 4 SLP269 VIS E-NE 2 1/2 T01170022
KFAT 101753Z 16005KT 3SM HZ FEW150 FEW200 SCT250 09/02 A3034 RMK AO2 SLP275 VIS NE-E 2 1/2 T00940017 10094 20011 53005
KFAT 101653Z 00000KT 3SM HZ FEW150 FEW200 SCT250 06/02 A3034 RMK AO2 SLP273 VIS NE-E 2 T00610017
KFAT 101553Z 00000KT 3SM BR FEW150 SCT200 SCT250 02/00 A3033 RMK AO2 SFC VIS 4 SLP272 VIS E 2 T00220000
KFAT 101453Z 08005KT 7SM FEW250 02/M01 A3033 RMK AO2 SLP270 T00171011 51008
KFAT 101353Z 11003KT 6SM HZ CLR 02/M01 A3032 RMK AO2 SLP270 T00171011
KFAT 101253Z 00000KT 6SM HZ FEW250 02/M01 A3031 RMK AO2 SLP264 T00221006
KFAT 101153Z 00000KT 5SM HZ FEW250 03/00 A3030 RMK AO2 SLP261 T00280000 10067 20022 55008
KFAT 101053Z 32003KT 5SM HZ FEW250 03/00 A3030 RMK AO2 SLP261 T00280000